N377MM KEQY-KEQY
Flight info
| Callsign | N377MM |
|---|---|
| Flight time | 0h 4m |
| Altitude | 2000 |
| Route | DCT |
| Aircraft | C172/L-VGD/A |
Departure
| Time | 2026-04-23 18:02 |
|---|---|
| Airport | Charlotte-Monroe Executive Airport (KEQY) |
Arrival
| Time | 2026-04-23 18:07 |
|---|---|
| Airport | Charlotte-Monroe Executive Airport (KEQY) |
| Time | Latitude | Longitude | Altitude | Speed | Heading |
|---|---|---|---|---|---|
| 2026-04-23 17:55 | 35.02175 | -80.61911 | 673 ft | 0 kts | 142° |
| 2026-04-23 17:55 | 35.02175 | -80.61912 | 673 ft | 0 kts | 142° |
| 2026-04-23 17:57 | 35.02176 | -80.61912 | 673 ft | 0 kts | 142° |
| 2026-04-23 17:58 | 35.02167 | -80.61903 | 673 ft | 3 kts | 136° |
| 2026-04-23 17:59 | 35.02158 | -80.61855 | 673 ft | 10 kts | 76° |
| 2026-04-23 17:59 | 35.02207 | -80.61760 | 672 ft | 16 kts | 47° |
| 2026-04-23 17:59 | 35.02278 | -80.61667 | 671 ft | 14 kts | 46° |
| 2026-04-23 17:59 | 35.02343 | -80.61583 | 670 ft | 13 kts | 51° |
| 2026-04-23 18:00 | 35.02402 | -80.61504 | 669 ft | 12 kts | 45° |
| 2026-04-23 18:00 | 35.02451 | -80.61427 | 668 ft | 8 kts | 94° |
| 2026-04-23 18:00 | 35.02436 | -80.61401 | 667 ft | 6 kts | 135° |
| 2026-04-23 18:00 | 35.02386 | -80.61367 | 668 ft | 10 kts | 196° |
| 2026-04-23 18:01 | 35.02333 | -80.61439 | 670 ft | 13 kts | 230° |
| 2026-04-23 18:01 | 35.02198 | -80.61620 | 673 ft | 52 kts | 229° |
| 2026-04-23 18:01 | 35.01877 | -80.62052 | 754 ft | 78 kts | 232° |
| 2026-04-23 18:01 | 35.01433 | -80.62589 | 855 ft | 93 kts | 229° |
| 2026-04-23 18:02 | 35.00972 | -80.63157 | 1079 ft | 90 kts | 236° |
| 2026-04-23 18:02 | 35.00571 | -80.63711 | 1350 ft | 86 kts | 235° |
| 2026-04-23 18:02 | 35.00107 | -80.64189 | 1567 ft | 91 kts | 201° |
| 2026-04-23 18:02 | 34.99494 | -80.63855 | 1751 ft | 106 kts | 150° |
| 2026-04-23 18:03 | 34.99194 | -80.63063 | 1855 ft | 114 kts | 71° |
| 2026-04-23 18:03 | 34.99564 | -80.62256 | 1908 ft | 107 kts | 50° |
| 2026-04-23 18:03 | 34.99983 | -80.61498 | 1859 ft | 108 kts | 50° |
| 2026-04-23 18:03 | 35.00393 | -80.60782 | 1900 ft | 100 kts | 49° |
| 2026-04-23 18:04 | 35.00843 | -80.60124 | 1863 ft | 101 kts | 38° |
| 2026-04-23 18:04 | 35.01369 | -80.59593 | 1872 ft | 93 kts | 26° |
| 2026-04-23 18:04 | 35.01897 | -80.59182 | 1822 ft | 86 kts | 26° |
| 2026-04-23 18:04 | 35.02384 | -80.58709 | 1701 ft | 92 kts | 32° |
| 2026-04-23 18:05 | 35.02900 | -80.58393 | 1576 ft | 81 kts | 338° |
| 2026-04-23 18:05 | 35.03351 | -80.58762 | 1487 ft | 72 kts | 315° |
| 2026-04-23 18:05 | 35.03679 | -80.59202 | 1353 ft | 70 kts | 300° |
| 2026-04-23 18:05 | 35.03642 | -80.59761 | 1177 ft | 75 kts | 236° |
| 2026-04-23 18:06 | 35.03319 | -80.60194 | 1059 ft | 63 kts | 230° |
| 2026-04-23 18:06 | 35.02996 | -80.60568 | 893 ft | 62 kts | 233° |
| 2026-04-23 18:06 | 35.02720 | -80.60945 | 779 ft | 57 kts | 232° |
| 2026-04-23 18:06 | 35.02417 | -80.61310 | 706 ft | 62 kts | 232° |
| 2026-04-23 18:07 | 35.02153 | -80.61668 | 674 ft | 48 kts | 232° |
| 2026-04-23 18:07 | 35.01986 | -80.61897 | 675 ft | 25 kts | 221° |
| 2026-04-23 18:07 | 35.01891 | -80.62014 | 676 ft | 14 kts | 226° |
| 2026-04-23 18:07 | 35.01921 | -80.62086 | 676 ft | 9 kts | 325° |
| 2026-04-23 18:08 | 35.01966 | -80.62077 | 676 ft | 6 kts | 15° |
| 2026-04-23 18:08 | 35.01990 | -80.62090 | 676 ft | 0 kts | 317° |